Time;durP1;ratioP1;P1;durP2;ratioP2;P2;SDS_P1;SDS_P2;PMS_P1;PMS_P2;Temp;Humidity;BMP_temperature;BMP_pressure;BME280_temperature;BME280_humidity;BME280_pressure;Samples;Min_cycle;Max_cycle;Signal;HPM_P1;HPM_P2
2022/02/20 00:01:05;;;;;;;47.80;45.20;;;8.20;99.90;;;;;;5021196;28;20477;-82
2022/02/20 00:03:31;;;;;;;29.53;27.20;;;8.30;99.90;;;;;;5002300;28;20561;-81
2022/02/20 00:05:58;;;;;;;16.33;15.30;;;8.20;99.90;;;;;;5003961;28;20462;-81
2022/02/20 00:08:25;;;;;;;13.93;10.03;;;8.10;99.90;;;;;;5021825;28;20449;-80
2022/02/20 00:10:53;;;;;;;10.80;9.70;;;8.00;99.90;;;;;;5022621;28;20453;-81
2022/02/20 00:13:20;;;;;;;12.57;8.00;;;7.90;99.90;;;;;;5022437;28;20472;-81
2022/02/20 00:15:47;;;;;;;10.27;3.63;;;7.80;99.90;;;;;;5022052;28;20843;-81
2022/02/20 00:18:14;;;;;;;10.87;4.70;;;7.70;99.90;;;;;;5022930;28;20979;-80
2022/02/20 00:20:43;;;;;;;10.27;4.10;;;7.80;99.90;;;;;;5024164;28;20453;-81
2022/02/20 00:23:10;;;;;;;14.80;6.10;;;7.70;99.90;;;;;;5024860;28;20477;-81
2022/02/20 00:25:38;;;;;;;8.53;3.60;;;7.70;99.90;;;;;;5026754;28;20461;-82
2022/02/20 00:28:07;;;;;;;9.80;3.60;;;7.60;99.90;;;;;;5026657;28;20449;-79
2022/02/20 00:30:34;;;;;;;7.47;3.00;;;7.40;99.90;;;;;;5026501;28;20460;-82
2022/02/20 00:33:01;;;;;;;12.43;3.10;;;7.40;99.90;;;;;;5026753;28;20472;-82
2022/02/20 00:35:30;;;;;;;6.43;3.93;;;7.30;99.90;;;;;;5025766;28;20528;-81
2022/02/20 00:37:58;;;;;;;11.47;4.13;;;7.20;99.90;;;;;;5026412;28;20870;-81
2022/02/20 00:40:25;;;;;;;10.13;3.77;;;7.20;99.90;;;;;;5027049;28;20453;-81
2022/02/20 00:42:52;;;;;;;11.53;4.33;;;7.20;99.90;;;;;;5027558;28;20981;-81
2022/02/20 00:45:20;;;;;;;11.07;4.60;;;7.10;99.90;;;;;;5027572;28;20457;-81
2022/02/20 00:47:47;;;;;;;11.33;4.50;;;7.00;99.90;;;;;;5027770;28;20454;-82
2022/02/20 00:50:13;;;;;;;10.80;4.77;;;7.10;99.90;;;;;;5027123;28;20846;-81
2022/02/20 00:52:40;;;;;;;7.77;5.17;;;7.10;99.90;;;;;;5026411;28;20456;-82
2022/02/20 00:55:09;;;;;;;14.60;5.80;;;7.00;99.90;;;;;;5026176;28;20476;-81
2022/02/20 00:57:35;;;;;;;8.90;4.97;;;6.90;99.90;;;;;;5027280;28;20454;-81
2022/02/20 01:00:04;;;;;;;14.40;4.90;;;6.90;99.90;;;;;;5027096;28;20846;-81
2022/02/20 01:02:32;;;;;;;17.07;5.87;;;6.90;99.90;;;;;;5026936;28;20480;-82
2022/02/20 01:04:59;;;;;;;7.83;6.53;;;6.90;99.90;;;;;;5026323;28;20476;-81
2022/02/20 01:07:25;;;;;;;10.37;5.80;;;6.80;99.90;;;;;;5026496;28;20535;-81
2022/02/20 01:09:52;;;;;;;7.60;4.83;;;6.80;99.90;;;;;;5025633;28;20460;-82
2022/02/20 01:12:19;;;;;;;8.80;5.23;;;6.90;99.90;;;;;;5027879;28;20447;-81
2022/02/20 01:14:46;;;;;;;12.00;7.23;;;7.00;99.90;;;;;;5026564;28;20473;-81
2022/02/20 01:17:14;;;;;;;10.80;5.90;;;7.10;99.90;;;;;;5026704;28;20744;-82
2022/02/20 01:19:43;;;;;;;10.73;5.47;;;7.10;99.90;;;;;;5025878;28;20822;-82
2022/02/20 01:22:10;;;;;;;9.80;7.13;;;7.00;99.90;;;;;;5026765;28;20480;-81
2022/02/20 01:24:37;;;;;;;10.00;5.97;;;6.90;99.90;;;;;;5007152;28;20484;-82
2022/02/20 01:27:05;;;;;;;8.37;6.00;;;6.80;99.90;;;;;;5005845;28;20989;-81
2022/02/20 01:29:31;;;;;;;12.80;6.13;;;6.80;99.90;;;;;;5024398;28;20453;-82
2022/02/20 01:31:58;;;;;;;9.53;5.50;;;6.70;99.90;;;;;;5025420;28;20441;-81
2022/02/20 01:34:25;;;;;;;11.10;6.70;;;6.70;99.90;;;;;;5025549;28;20492;-81
2022/02/20 01:36:53;;;;;;;10.53;6.43;;;6.70;99.90;;;;;;5026024;28;20467;-82
2022/02/20 01:39:20;;;;;;;7.00;5.73;;;6.50;99.90;;;;;;5025084;28;20533;-82
2022/02/20 01:41:47;;;;;;;14.23;6.90;;;6.50;99.90;;;;;;5025109;28;20481;-80
2022/02/20 01:44:13;;;;;;;10.43;6.87;;;6.30;99.90;;;;;;5025895;28;20473;-81
2022/02/20 01:46:45;;;;;;;11.40;10.27;;;6.20;99.90;;;;;;5025590;28;20464;-81
2022/02/20 01:49:13;;;;;;;13.97;12.70;;;6.10;99.90;;;;;;5025151;28;20488;-81
2022/02/20 01:51:39;;;;;;;18.70;9.43;;;5.90;99.90;;;;;;5025725;28;20445;-82
2022/02/20 01:54:08;;;;;;;10.10;9.10;;;5.80;99.90;;;;;;5025584;28;20476;-81
2022/02/20 01:56:35;;;;;;;18.23;9.60;;;5.70;99.90;;;;;;5025558;28;20461;-81
2022/02/20 01:59:03;;;;;;;23.77;22.10;;;5.60;99.90;;;;;;5026349;28;20453;-81
2022/02/20 02:01:30;;;;;;;25.47;23.30;;;5.60;99.90;;;;;;5026177;28;20462;-81
2022/02/20 02:03:57;;;;;;;18.60;16.87;;;5.50;99.90;;;;;;5025540;28;20473;-81
2022/02/20 02:06:24;;;;;;;29.03;26.73;;;5.50;99.90;;;;;;5026624;28;20461;-82
2022/02/20 02:08:50;;;;;;;25.20;23.57;;;5.30;99.90;;;;;;5026528;28;20461;-81
2022/02/20 02:11:19;;;;;;;46.13;43.03;;;5.20;99.90;;;;;;5026350;28;20453;-81
2022/02/20 02:13:45;;;;;;;29.57;27.73;;;5.20;99.90;;;;;;5025501;28;20469;-81
2022/02/20 02:16:13;;;;;;;30.00;27.33;;;5.20;99.90;;;;;;5025598;28;20465;-81
2022/02/20 02:18:40;;;;;;;53.20;50.00;;;5.20;99.90;;;;;;5031680;28;20460;-80
2022/02/20 02:21:07;;;;;;;26.90;24.87;;;5.00;99.90;;;;;;5035826;28;20467;-81
2022/02/20 02:23:35;;;;;;;94.60;90.10;;;5.00;99.90;;;;;;5034622;28;20487;-80
2022/02/20 02:26:02;;;;;;;73.13;69.43;;;5.00;99.90;;;;;;5028329;28;20459;-81
2022/02/20 02:28:30;;;;;;;69.30;65.00;;;4.90;99.90;;;;;;5026509;28;20457;-81
2022/02/20 02:30:57;;;;;;;83.50;78.87;;;4.90;99.90;;;;;;5026453;28;20469;-81
2022/02/20 02:33:28;;;;;;;68.13;64.80;;;4.90;99.90;;;;;;5025564;28;20465;-81
2022/02/20 02:35:55;;;;;;;58.03;54.93;;;4.90;99.90;;;;;;5024233;28;20487;-81
2022/02/20 02:38:26;;;;;;;41.97;39.73;;;4.90;99.90;;;;;;5033369;28;20453;-79
2022/02/20 02:40:55;;;;;;;73.23;69.53;;;5.00;99.90;;;;;;5033059;28;20449;-81
2022/02/20 02:43:21;;;;;;;48.63;45.07;;;4.80;99.90;;;;;;5025306;28;20469;-81
2022/02/20 02:45:48;;;;;;;58.73;55.60;;;4.80;99.90;;;;;;5026060;28;20455;-80
2022/02/20 02:48:15;;;;;;;74.17;70.50;;;4.70;99.90;;;;;;5020565;28;20467;-80
2022/02/20 02:50:42;;;;;;;88.37;83.33;;;4.60;99.90;;;;;;5021282;28;20448;-81
2022/02/20 02:53:09;;;;;;;44.53;41.90;;;4.60;99.90;;;;;;5021503;28;20449;-81
2022/02/20 02:55:36;;;;;;;42.93;40.03;;;4.60;99.90;;;;;;5024722;28;20460;-81
2022/02/20 02:58:05;;;;;;;68.77;65.40;;;4.70;99.90;;;;;;5026363;28;20449;-80
2022/02/20 03:00:33;;;;;;;60.97;57.87;;;4.60;99.90;;;;;;5023349;28;20519;-81
2022/02/20 03:03:01;;;;;;;74.73;71.57;;;4.50;99.90;;;;;;5023914;28;21059;-81
2022/02/20 03:05:28;;;;;;;64.80;61.67;;;4.60;99.90;;;;;;5024585;28;20453;-78
2022/02/20 03:07:54;;;;;;;77.60;74.00;;;4.60;99.90;;;;;;5024944;28;20479;-80
2022/02/20 03:10:21;;;;;;;68.80;65.30;;;4.50;99.90;;;;;;5024986;28;20457;-80
2022/02/20 03:12:48;;;;;;;43.67;40.47;;;4.50;99.90;;;;;;5024597;28;20441;-81
2022/02/20 03:15:16;;;;;;;70.27;66.47;;;4.60;99.90;;;;;;5024223;28;20468;-81
2022/02/20 03:17:43;;;;;;;98.87;94.83;;;4.50;99.90;;;;;;5024280;28;20449;-81
2022/02/20 03:20:10;;;;;;;87.03;82.83;;;4.50;99.90;;;;;;5024005;28;20457;-81
2022/02/20 03:22:37;;;;;;;81.43;77.90;;;4.50;99.90;;;;;;5023815;28;20473;-81
2022/02/20 03:25:04;;;;;;;79.23;75.00;;;4.40;99.90;;;;;;5024042;28;20592;-80
2022/02/20 03:27:31;;;;;;;111.53;107.10;;;4.50;99.90;;;;;;5024538;28;20457;-80
2022/02/20 03:29:58;;;;;;;104.60;99.70;;;4.50;99.90;;;;;;5024396;28;20453;-80
2022/02/20 03:32:26;;;;;;;104.00;99.60;;;4.40;99.90;;;;;;5023374;28;20480;-80
2022/02/20 03:34:53;;;;;;;127.70;122.90;;;4.50;99.90;;;;;;5024115;28;20831;-80
2022/02/20 03:37:19;;;;;;;126.93;121.67;;;4.50;99.90;;;;;;5024033;28;20453;-80
2022/02/20 03:39:46;;;;;;;117.20;112.53;;;4.40;99.90;;;;;;5023619;28;20752;-81
2022/02/20 03:42:13;;;;;;;106.47;101.70;;;4.40;99.90;;;;;;5024549;28;20492;-80
2022/02/20 03:44:39;;;;;;;150.73;144.50;;;4.40;99.90;;;;;;5023123;28;20473;-81
2022/02/20 03:47:06;;;;;;;150.43;144.53;;;4.40;99.90;;;;;;5024574;28;20453;-81
2022/02/20 03:49:34;;;;;;;163.57;156.73;;;4.40;99.90;;;;;;5023560;28;20460;-80
2022/02/20 03:52:01;;;;;;;177.27;170.57;;;4.30;99.90;;;;;;5023825;28;20452;-80
2022/02/20 03:54:28;;;;;;;159.13;153.07;;;4.30;99.90;;;;;;5023314;28;20469;-81
2022/02/20 03:56:55;;;;;;;200.90;193.77;;;4.30;99.90;;;;;;5023523;28;20467;-80
2022/02/20 03:59:21;;;;;;;193.90;186.30;;;4.30;99.90;;;;;;5024546;28;20457;-81
2022/02/20 04:01:48;;;;;;;254.57;245.37;;;4.20;99.90;;;;;;5024515;28;20449;-81
2022/02/20 04:04:15;;;;;;;280.60;270.70;;;4.10;99.90;;;;;;5022167;28;20477;-80
2022/02/20 04:06:43;;;;;;;314.97;303.73;;;4.10;99.90;;;;;;5022751;28;20453;-81
2022/02/20 04:09:12;;;;;;;339.67;327.23;;;4.00;99.90;;;;;;5022255;28;20452;-81
2022/02/20 04:11:38;;;;;;;417.60;401.40;;;3.80;99.90;;;;;;5022650;28;20460;-81
2022/02/20 04:14:05;;;;;;;466.17;446.10;;;3.70;99.90;;;;;;5022293;28;20481;-80
2022/02/20 04:16:32;;;;;;;505.80;482.40;;;3.70;99.90;;;;;;5022760;28;20830;-80
2022/02/20 04:18:59;;;;;;;523.80;498.47;;;3.70;99.90;;;;;;5021920;28;20464;-80
2022/02/20 04:21:26;;;;;;;550.80;522.47;;;3.70;99.90;;;;;;5022261;28;20457;-81
2022/02/20 04:23:59;;;;;;;543.50;515.23;;;3.60;99.90;;;;;;5046051;22;20483;-81
2022/02/20 04:26:29;;;;;;;564.30;535.47;;;3.50;99.90;;;;;;5014804;28;20446;-81
2022/02/20 04:29:01;;;;;;;596.27;563.97;;;3.30;99.90;;;;;;5020594;28;20559;-81
2022/02/20 04:34:27;;;;;;;622.17;589.17;;;3.30;99.90;;;;;;5018574;28;20469;-81
2022/02/20 04:36:57;;;;;;;624.50;590.67;;;3.30;99.90;;;;;;5020463;28;20469;-81
2022/02/20 04:39:26;;;;;;;604.27;573.47;;;3.40;99.90;;;;;;5019110;28;20457;-82
2022/02/20 04:41:58;;;;;;;633.70;597.77;;;3.30;99.90;;;;;;5000939;28;20489;-81
2022/02/20 04:44:26;;;;;;;621.40;590.50;;;3.30;99.90;;;;;;5002040;28;20929;-82
2022/02/20 04:46:55;;;;;;;634.33;600.73;;;3.40;99.90;;;;;;5021871;28;20456;-81
2022/02/20 04:49:26;;;;;;;633.73;598.53;;;3.30;99.90;;;;;;5008713;28;20477;-81
2022/02/20 04:51:57;;;;;;;635.37;600.47;;;3.20;99.90;;;;;;5000643;28;20462;-81
2022/02/20 04:54:24;;;;;;;660.67;623.50;;;3.10;99.90;;;;;;5009134;28;20469;-81
2022/02/20 04:56:54;;;;;;;679.07;639.03;;;3.10;99.90;;;;;;5019954;28;20459;-81
2022/02/20 04:59:24;;;;;;;716.43;672.10;;;3.00;99.90;;;;;;5008341;28;20525;-81
2022/02/20 05:01:58;;;;;;;717.23;671.67;;;3.00;99.90;;;;;;5001800;28;20464;-81
2022/02/20 05:04:33;;;;;;;725.50;678.43;;;3.00;99.90;;;;;;5019259;28;20537;-81
2022/02/20 05:06:59;;;;;;;734.97;686.97;;;3.10;99.90;;;;;;5017080;28;20463;-81
2022/02/20 05:09:37;;;;;;;743.67;694.70;;;3.10;99.90;;;;;;4999714;28;20481;-81
2022/02/20 05:12:11;;;;;;;749.47;698.43;;;3.30;99.90;;;;;;5002246;28;20457;-81
2022/02/20 05:14:39;;;;;;;743.70;692.20;;;3.30;99.90;;;;;;5019761;28;20531;-81
2022/02/20 05:17:06;;;;;;;752.70;701.57;;;3.50;99.90;;;;;;5006453;28;20449;-81
2022/02/20 05:19:33;;;;;;;742.30;690.70;;;3.60;99.90;;;;;;5005945;28;20456;-81
2022/02/20 05:22:00;;;;;;;730.53;680.23;;;3.70;99.90;;;;;;5002538;28;20450;-81
2022/02/20 05:24:31;;;;;;;720.10;670.20;;;3.80;99.90;;;;;;5014487;28;20474;-82
2022/02/20 05:26:58;;;;;;;718.30;669.10;;;3.70;99.90;;;;;;5003939;28;20481;-81
2022/02/20 05:29:26;;;;;;;722.33;672.83;;;3.90;99.90;;;;;;5004376;28;20493;-81
2022/02/20 05:31:53;;;;;;;736.67;687.50;;;3.80;99.90;;;;;;5002644;28;20458;-81
2022/02/20 05:34:21;;;;;;;734.57;684.27;;;4.00;99.90;;;;;;5003094;28;20508;-81
2022/02/20 05:36:48;;;;;;;711.17;664.10;;;4.00;99.90;;;;;;5002794;28;20962;-81
2022/02/20 05:39:14;;;;;;;727.33;678.63;;;4.00;99.90;;;;;;5013687;28;20449;-81
2022/02/20 05:41:41;;;;;;;710.23;662.13;;;4.10;99.90;;;;;;5008906;28;20454;-82
2022/02/20 05:44:08;;;;;;;679.87;634.80;;;4.10;99.90;;;;;;5003235;28;20486;-81
2022/02/20 05:46:36;;;;;;;689.60;644.60;;;4.20;99.90;;;;;;5008050;28;20461;-81
2022/02/20 05:49:04;;;;;;;696.37;651.00;;;4.20;99.90;;;;;;5004942;28;20449;-81
2022/02/20 05:51:31;;;;;;;691.93;647.37;;;4.20;99.90;;;;;;4995587;28;20530;-81
2022/02/20 05:53:57;;;;;;;685.27;641.50;;;4.30;99.90;;;;;;5004490;28;20500;-81
2022/02/20 05:56:24;;;;;;;676.87;634.27;;;4.30;99.90;;;;;;5018200;28;20525;-81
2022/02/20 05:58:51;;;;;;;705.20;658.80;;;4.40;99.90;;;;;;5001189;28;20835;-79
2022/02/20 06:01:18;;;;;;;701.90;654.60;;;4.40;99.90;;;;;;5013053;28;20453;-81
2022/02/20 06:03:46;;;;;;;711.50;664.07;;;4.50;99.90;;;;;;5008563;28;20464;-80
2022/02/20 06:06:13;;;;;;;722.77;674.00;;;4.60;99.90;;;;;;5011434;28;20449;-80
2022/02/20 06:08:40;;;;;;;750.47;699.37;;;4.60;99.90;;;;;;5007284;28;20460;-81
2022/02/20 06:11:06;;;;;;;766.70;712.37;;;4.60;99.90;;;;;;5005070;28;20453;-81
2022/02/20 06:13:33;;;;;;;766.20;708.30;;;4.60;99.90;;;;;;5009981;28;20557;-80
2022/02/20 06:16:00;;;;;;;741.53;686.17;;;4.80;99.90;;;;;;5011755;28;20474;-81
2022/02/20 06:18:27;;;;;;;745.93;685.67;;;4.90;99.90;;;;;;5019028;28;20453;-80
2022/02/20 06:20:55;;;;;;;755.43;691.60;;;5.00;99.90;;;;;;5009847;28;20516;-80
2022/02/20 06:23:21;;;;;;;741.37;675.57;;;5.10;99.90;;;;;;5011861;28;20475;-79
2022/02/20 06:25:48;;;;;;;730.07;665.70;;;5.30;99.90;;;;;;5008028;28;20462;-80
2022/02/20 06:28:15;;;;;;;734.83;677.53;;;5.40;99.90;;;;;;5005405;28;20838;-79
2022/02/20 06:30:42;;;;;;;754.00;695.10;;;5.70;99.90;;;;;;5005439;28;20460;-79
2022/02/20 06:33:08;;;;;;;774.03;717.47;;;5.70;99.90;;;;;;5001941;28;20895;-79
2022/02/20 06:35:36;;;;;;;764.27;707.30;;;5.80;99.90;;;;;;4998888;28;20466;-79
2022/02/20 06:38:05;;;;;;;759.07;700.47;;;6.10;99.90;;;;;;4997889;28;20454;-79
2022/02/20 06:40:32;;;;;;;784.97;720.70;;;6.20;99.90;;;;;;5000471;28;20453;-79
2022/02/20 06:42:59;;;;;;;822.70;753.90;;;6.30;99.90;;;;;;5003470;28;20461;-79
2022/02/20 06:45:26;;;;;;;773.90;710.83;;;6.50;99.90;;;;;;5003129;28;20473;-79
2022/02/20 06:47:52;;;;;;;718.10;658.70;;;6.60;99.90;;;;;;5010970;28;20457;-79
2022/02/20 06:50:19;;;;;;;714.87;653.93;;;6.80;99.90;;;;;;4999184;28;20454;-79
2022/02/20 06:52:46;;;;;;;694.67;638.70;;;6.90;99.90;;;;;;4980324;28;20481;-79
2022/02/20 06:55:14;;;;;;;689.43;635.27;;;6.90;99.90;;;;;;4983820;28;20815;-79
2022/02/20 06:57:41;;;;;;;707.10;650.73;;;7.00;99.90;;;;;;4992732;28;20460;-80
2022/02/20 07:00:11;;;;;;;690.97;639.90;;;7.00;99.90;;;;;;4993017;28;20454;-79
2022/02/20 07:02:38;;;;;;;716.27;658.40;;;7.00;99.90;;;;;;4999601;28;20973;-80
2022/02/20 07:05:06;;;;;;;734.50;673.87;;;7.20;99.90;;;;;;5010219;28;20489;-80
2022/02/20 07:07:33;;;;;;;717.87;661.40;;;7.20;99.90;;;;;;4993243;28;20843;-81
2022/02/20 07:10:00;;;;;;;742.60;680.20;;;7.20;99.90;;;;;;4991294;28;20847;-80
2022/02/20 07:12:28;;;;;;;707.47;653.47;;;7.30;99.90;;;;;;4993317;28;20962;-81
2022/02/20 07:14:55;;;;;;;719.07;661.10;;;7.40;99.90;;;;;;5005416;28;20473;-80
2022/02/20 07:17:22;;;;;;;715.10;657.47;;;7.40;99.90;;;;;;5010042;28;20464;-80
2022/02/20 07:19:49;;;;;;;703.53;649.90;;;7.50;99.90;;;;;;4993465;28;20469;-80
2022/02/20 07:22:15;;;;;;;729.27;674.17;;;7.50;99.90;;;;;;4999704;28;20456;-80
2022/02/20 07:24:42;;;;;;;704.20;649.77;;;7.60;99.90;;;;;;5012866;28;20485;-80
2022/02/20 07:27:09;;;;;;;685.87;634.33;;;7.70;99.90;;;;;;5008032;28;20481;-80
2022/02/20 07:29:37;;;;;;;715.63;657.53;;;7.70;99.90;;;;;;4997540;28;20450;-80
2022/02/20 07:32:04;;;;;;;722.17;665.17;;;7.80;99.90;;;;;;5004995;28;20465;-80
2022/02/20 07:34:32;;;;;;;709.73;654.40;;;7.80;99.90;;;;;;5001704;28;21009;-81
2022/02/20 07:36:59;;;;;;;707.40;650.93;;;7.90;99.90;;;;;;4995427;28;20454;-80
2022/02/20 07:39:26;;;;;;;695.87;642.13;;;7.90;99.90;;;;;;5005777;28;20456;-80
2022/02/20 07:41:52;;;;;;;701.17;647.60;;;7.90;99.90;;;;;;5013071;28;20453;-80
2022/02/20 07:44:19;;;;;;;685.87;633.60;;;7.90;99.90;;;;;;4997664;28;20486;-80
2022/02/20 07:46:47;;;;;;;693.03;639.30;;;7.90;99.90;;;;;;4999302;28;20454;-80
2022/02/20 07:49:14;;;;;;;667.47;618.33;;;7.90;99.90;;;;;;5016328;28;20812;-81
2022/02/20 07:51:41;;;;;;;667.47;616.23;;;7.90;99.90;;;;;;5006363;28;20457;-80
2022/02/20 07:54:09;;;;;;;682.27;631.37;;;7.90;99.90;;;;;;4998993;28;20485;-80
2022/02/20 07:56:35;;;;;;;691.57;637.97;;;8.00;99.90;;;;;;5015589;28;20457;-79
2022/02/20 07:59:02;;;;;;;663.57;613.90;;;8.00;99.90;;;;;;5016302;28;20457;-80
2022/02/20 08:01:31;;;;;;;688.90;638.37;;;8.10;99.90;;;;;;4996945;28;20476;-81
2022/02/20 08:03:59;;;;;;;687.57;635.47;;;8.00;99.90;;;;;;5012531;28;20891;-81
2022/02/20 08:06:26;;;;;;;659.63;611.73;;;8.00;99.90;;;;;;5011850;28;20452;-80
2022/02/20 08:08:53;;;;;;;707.23;654.17;;;8.10;99.90;;;;;;4998724;28;20465;-80
2022/02/20 08:11:20;;;;;;;693.97;642.97;;;8.10;99.90;;;;;;4999983;28;20481;-81
2022/02/20 08:13:47;;;;;;;688.83;635.93;;;8.20;99.90;;;;;;5005347;28;20469;-80
2022/02/20 08:16:18;;;;;;;702.30;649.20;;;8.20;99.90;;;;;;5001099;28;20457;-81
2022/02/20 08:18:45;;;;;;;707.77;653.77;;;8.20;99.90;;;;;;5006323;28;20462;-81
2022/02/20 08:21:16;;;;;;;701.97;647.57;;;8.30;99.90;;;;;;5005838;28;20461;-82
2022/02/20 08:23:48;;;;;;;710.97;656.50;;;8.30;99.90;;;;;;5002426;28;20476;-81
2022/02/20 08:26:15;;;;;;;714.50;661.27;;;8.30;99.90;;;;;;4999847;28;20529;-81
2022/02/20 08:28:46;;;;;;;717.53;663.43;;;8.40;99.90;;;;;;4998466;28;20460;-82
2022/02/20 08:31:13;;;;;;;705.10;650.80;;;8.40;99.90;;;;;;5015764;28;20457;-81
2022/02/20 08:33:40;;;;;;;694.87;639.57;;;8.50;99.90;;;;;;5018367;28;20463;-81
2022/02/20 08:36:09;;;;;;;698.93;643.87;;;8.50;99.90;;;;;;5018033;28;20449;-82
2022/02/20 08:38:42;;;;;;;696.93;643.47;;;8.60;99.90;;;;;;5008691;28;20951;-82
2022/02/20 08:41:09;;;;;;;713.37;659.33;;;8.60;99.90;;;;;;4998811;28;20451;-82
2022/02/20 08:43:39;;;;;;;710.13;654.50;;;8.70;99.90;;;;;;4999966;28;20533;-82
2022/02/20 08:46:07;;;;;;;710.07;654.57;;;8.70;99.90;;;;;;4999389;28;20465;-82
2022/02/20 08:48:36;;;;;;;701.20;647.07;;;8.80;99.90;;;;;;4999298;28;20461;-82
2022/02/20 08:51:04;;;;;;;710.23;654.67;;;8.80;99.90;;;;;;4999657;28;20454;-81
2022/02/20 08:53:31;;;;;;;701.17;646.07;;;8.80;99.90;;;;;;5005122;28;20451;-83
2022/02/20 08:56:13;;;;;;;691.93;638.77;;;8.90;99.90;;;;;;5007536;28;20492;-82
2022/02/20 08:58:40;;;;;;;696.63;643.43;;;8.90;99.90;;;;;;5019995;28;20449;-84
2022/02/20 09:01:15;;;;;;;695.53;643.90;;;8.90;99.90;;;;;;5005150;28;20458;-82
2022/02/20 09:03:46;;;;;;;693.07;641.47;;;9.00;99.90;;;;;;5006631;28;21013;-81
2022/02/20 09:06:15;;;;;;;693.57;642.07;;;9.00;99.90;;;;;;5010496;28;20486;-82
2022/02/20 09:08:42;;;;;;;702.80;650.70;;;9.00;99.90;;;;;;5005534;28;20457;-82
2022/02/20 09:14:56;;;;;;;684.97;633.47;;;9.00;99.90;;;;;;4972961;28;20474;-83
2022/02/20 09:18:02;;;;;;;676.70;626.90;;;9.00;99.90;;;;;;4981231;28;20995;-82
2022/02/20 09:23:57;;;;;;;667.10;622.40;;;9.10;99.90;;;;;;4981181;28;20506;-82
2022/02/20 09:26:37;;;;;;;680.30;635.40;;;9.20;99.90;;;;;;4991673;28;20583;-82
2022/02/20 09:29:43;;;;;;;678.10;636.40;;;9.30;99.90;;;;;;5019972;28;20445;-84
2022/02/20 09:39:00;;;;;;;708.20;668.60;;;9.50;99.90;;;;;;4948428;28;20459;-82
2022/02/20 09:42:09;;;;;;;699.90;664.40;;;9.50;99.90;;;;;;4955158;28;20537;-82
2022/02/20 09:44:38;;;;;;;688.77;653.87;;;9.50;99.90;;;;;;4936390;28;20514;-83
2022/02/20 09:47:09;;;;;;;703.43;664.40;;;9.50;99.90;;;;;;4998403;28;20482;-83
2022/02/20 09:49:46;;;;;;;703.10;665.00;;;9.50;99.90;;;;;;4998969;28;20450;-82
2022/02/20 09:52:25;;;;;;;694.80;657.57;;;9.40;99.90;;;;;;4999970;28;20537;-83
2022/02/20 09:54:54;;;;;;;700.67;662.57;;;9.50;99.90;;;;;;4998947;28;20470;-82
2022/02/20 09:57:39;;;;;;;696.33;659.40;;;9.60;99.90;;;;;;5016067;28;20870;-82
2022/02/20 10:00:10;;;;;;;706.27;667.80;;;9.60;99.90;;;;;;5000032;28;20525;-82
2022/02/20 10:02:50;;;;;;;;;;;;;;;;;;;;;
2022/02/20 10:05:32;;;;;;;718.83;680.57;;;9.70;99.90;;;;;;5007458;28;20497;-81
2022/02/20 10:07:58;;;;;;;727.13;687.17;;;9.70;99.90;;;;;;5003341;28;20458;-81
2022/02/20 10:10:39;;;;;;;726.80;689.03;;;9.80;99.90;;;;;;4998304;28;20457;-82
2022/02/20 10:13:15;;;;;;;720.10;682.57;;;9.90;99.90;;;;;;5006337;28;20812;-82
2022/02/20 10:15:59;;;;;;;697.10;665.77;;;10.00;99.90;;;;;;5003035;28;20469;-82
2022/02/20 10:18:29;;;;;;;696.37;665.97;;;10.00;99.90;;;;;;5002024;28;20443;-82
2022/02/20 10:21:15;;;;;;;702.90;671.80;;;10.10;99.90;;;;;;5006094;28;20460;-82
2022/02/20 10:24:06;;;;;;;690.33;660.73;;;10.10;99.90;;;;;;5017424;28;20993;-80
2022/02/20 10:26:40;;;;;;;646.70;621.20;;;10.20;99.90;;;;;;5001890;28;20656;-82
2022/02/20 10:29:10;;;;;;;589.30;567.90;;;10.40;99.90;;;;;;4995597;28;20505;-82
2022/02/20 10:31:41;;;;;;;522.50;504.73;;;10.50;99.90;;;;;;4996902;28;20969;-82
2022/02/20 10:34:09;;;;;;;474.03;458.00;;;10.50;99.90;;;;;;4996935;28;20478;-82
2022/02/20 10:36:50;;;;;;;384.57;372.27;;;10.70;99.90;;;;;;4995174;28;20452;-82
2022/02/20 10:39:21;;;;;;;331.70;321.80;;;11.00;99.90;;;;;;4995817;28;20970;-82
2022/02/20 10:41:50;;;;;;;225.73;218.77;;;11.10;99.90;;;;;;4996435;28;20448;-82
2022/02/20 10:44:17;;;;;;;163.43;157.90;;;11.00;99.90;;;;;;4996826;28;20476;-82
2022/02/20 10:46:46;;;;;;;108.37;104.37;;;11.10;99.90;;;;;;4998083;28;20454;-82
2022/02/20 10:49:26;;;;;;;89.53;86.07;;;11.10;99.90;;;;;;4996624;28;20450;-81
2022/02/20 10:51:54;;;;;;;111.90;108.10;;;11.00;99.90;;;;;;4998797;28;20950;-82
2022/02/20 10:54:21;;;;;;;60.37;57.70;;;11.10;99.90;;;;;;4998343;28;20474;-82
2022/02/20 10:56:56;;;;;;;45.20;43.27;;;11.00;99.90;;;;;;4996245;28;20458;-82
2022/02/20 10:59:59;;;;;;;55.20;52.80;;;11.00;99.90;;;;;;4998212;28;20481;-82
2022/02/20 11:02:29;;;;;;;55.17;52.87;;;10.80;99.90;;;;;;4998998;28;20469;-84
2022/02/20 11:04:57;;;;;;;74.07;71.07;;;10.80;99.90;;;;;;4999939;28;20460;-83
2022/02/20 11:07:30;;;;;;;73.83;70.93;;;10.80;99.90;;;;;;4999833;28;20202;-83
2022/02/20 11:10:02;;;;;;;67.97;65.17;;;10.90;99.90;;;;;;4999975;28;20497;-83
2022/02/20 11:12:33;;;;;;;67.10;64.53;;;10.80;99.90;;;;;;5010292;28;20449;-83
2022/02/20 11:15:09;;;;;;;60.87;58.40;;;10.80;99.90;;;;;;5002928;28;20470;-83
2022/02/20 11:18:10;;;;;;;77.50;74.40;;;10.70;99.90;;;;;;5003703;28;20458;-83
2022/02/20 11:20:51;;;;;;;67.23;64.57;;;10.80;99.90;;;;;;4982215;28;20458;-83
2022/02/20 11:23:40;;;;;;;77.57;74.10;;;10.80;99.90;;;;;;4986322;28;20454;-82
2022/02/20 11:26:10;;;;;;;69.83;65.77;;;10.80;99.90;;;;;;5021112;28;20477;-83
2022/02/20 11:28:40;;;;;;;79.23;74.83;;;10.70;99.90;;;;;;5016747;28;20450;-83
2022/02/20 11:31:12;;;;;;;67.00;63.10;;;10.70;99.90;;;;;;5003435;28;21021;-83
2022/02/20 11:33:41;;;;;;;59.93;56.03;;;10.80;99.90;;;;;;5006875;28;20454;-83
2022/02/20 11:36:12;;;;;;;46.63;44.23;;;10.80;99.90;;;;;;5005068;28;20446;-82
2022/02/20 11:38:43;;;;;;;35.40;32.63;;;10.70;99.90;;;;;;5014457;28;20453;-83
2022/02/20 11:41:27;;;;;;;47.23;42.30;;;10.80;99.90;;;;;;5009252;28;20999;-82
2022/02/20 11:43:55;;;;;;;39.20;36.50;;;10.80;99.90;;;;;;5010248;28;20466;-83
2022/02/20 11:46:26;;;;;;;34.80;32.37;;;10.90;99.90;;;;;;5013755;28;20477;-83
2022/02/20 11:49:29;;;;;;;55.57;52.37;;;11.00;99.90;;;;;;5008431;28;21141;-82
2022/02/20 11:52:09;;;;;;;100.67;96.73;;;10.90;99.90;;;;;;5003352;28;20511;-82
2022/02/20 11:54:38;;;;;;;90.60;86.90;;;10.70;99.90;;;;;;5009040;28;20476;-82
2022/02/20 11:57:28;;;;;;;210.77;203.47;;;10.50;99.90;;;;;;5016155;28;20450;-83
2022/02/20 12:00:14;;;;;;;399.70;386.50;;;10.30;99.90;;;;;;4988546;28;20461;-82
2022/02/20 12:03:08;;;;;;;538.43;517.33;;;10.10;99.90;;;;;;4997901;28;20482;-82
2022/02/20 12:05:37;;;;;;;581.10;557.43;;;10.10;99.90;;;;;;5008710;28;20516;-82
2022/02/20 12:08:08;;;;;;;574.67;551.07;;;9.90;99.90;;;;;;5000021;28;20454;-82
2022/02/20 12:10:37;;;;;;;568.93;544.43;;;9.60;99.90;;;;;;5009773;28;20465;-82
2022/02/20 12:13:32;;;;;;;571.43;547.03;;;9.60;99.90;;;;;;5016758;28;20529;-82
2022/02/20 12:16:21;;;;;;;538.67;514.57;;;9.70;99.90;;;;;;5006301;28;20453;-81
2022/02/20 12:19:14;;;;;;;483.37;463.57;;;9.60;99.90;;;;;;5006894;28;20541;-81
2022/02/20 12:22:03;;;;;;;499.80;476.20;;;9.50;99.90;;;;;;5008861;28;20445;-81
2022/02/20 12:24:40;;;;;;;473.60;451.83;;;9.50;99.90;;;;;;5016072;28;20483;-81
2022/02/20 12:27:11;;;;;;;475.63;453.10;;;9.50;99.90;;;;;;5005291;28;20453;-81
2022/02/20 12:29:40;;;;;;;476.67;453.77;;;9.50;99.90;;;;;;5015691;28;20453;-82
2022/02/20 12:32:10;;;;;;;494.93;470.53;;;9.60;99.90;;;;;;5009516;28;20961;-81
2022/02/20 12:34:52;;;;;;;539.97;511.40;;;9.60;99.90;;;;;;5007730;28;20469;-80
2022/02/20 12:37:21;;;;;;;462.43;440.17;;;9.70;99.90;;;;;;5014733;28;20445;-81
2022/02/20 12:39:54;;;;;;;508.90;481.93;;;9.70;99.90;;;;;;5008974;28;20445;-81
2022/02/20 12:42:21;;;;;;;520.10;491.33;;;9.70;99.90;;;;;;5024134;28;20454;-82
2022/02/20 12:44:49;;;;;;;502.63;474.80;;;9.70;99.90;;;;;;5002281;28;20864;-81
2022/02/20 12:47:17;;;;;;;480.77;456.93;;;9.80;99.90;;;;;;5007377;28;20457;-81
2022/02/20 12:49:51;;;;;;;492.40;467.13;;;9.70;99.90;;;;;;5007577;28;20871;-81
2022/02/20 12:52:20;;;;;;;525.70;497.40;;;9.80;99.90;;;;;;5007258;28;20453;-81
2022/02/20 12:55:05;;;;;;;553.57;524.70;;;9.80;99.90;;;;;;5017998;28;20477;-81
2022/02/20 12:57:37;;;;;;;529.77;500.70;;;9.80;99.90;;;;;;4999057;28;20522;-81